FAWC Weather

FACT METAR/TAF

[source: ADDS]
METAR
FACT 231700Z 18006KT CAVOK 12/05 Q1028 NOSIG =
TAF
TAF FACT 231600Z 2318/2424 19006KT 9999 FEW035 TX17/2412ZTN04/2406Z =
SR / SS: 05:50 / 15:43 UTC (FAWC 2017-06-23)

Polls

Flying Interest Is?
 
FacebookMySpaceTwitterDiggDeliciousStumbleuponGoogle BookmarksRedditNewsvineTechnoratiLinkedinMixxRSS Feed